CKT6 weather

St-Remi-D'Amherst / Kanata Tremblant Resort Heliport
Quebec, Canada

Public forecast

Using degrees Celsius for public forecast. Weather courtesy of forecast.io.

Closest aviation weather report (METAR) to St-Remi-D'Amherst / Kanata Tremblant Resort Heliport

Closest report is Montreal International (Mirabel) Airport, 35.2 nm (65.1 km) ESE. Retrieved 2019/11/18 10:00 UTC (3 minutes ago):

CYMX 181000Z VRB02KT 25SM SKC M12/M14 A3009 RMK SLP197

Closest aviation forecast (TAF) to St-Remi-D'Amherst / Kanata Tremblant Resort Heliport

Closest forecast is Montreal International (Mirabel) Airport, 35.2 nm (65.1 km) ESE. Retrieved 2019/11/18 06:42 UTC (3 hours ago):

TAF CYMX 180538Z 1806/1906 VRB03KT P6SM SKC FM181100 04005KT P6SM FEW020 SCT240 TEMPO 1811/1817 BKN020 FM181700 06005KT P6SM BKN030 BECMG 1900/1902 02005KT FM190400 02005KT P6SM OVC025 PROB30 1904/1906 4SM -FZDZ BR RMK NXT FCST BY 181200Z